sensor_id;sensor_type;location;lat;lon;timestamp;P1;P2;P0
78316;PMS7003;67572;50.930;18.276;2023-08-06T00:03:02;9.00;8.00;7.33
78316;PMS7003;67572;50.930;18.276;2023-08-06T00:06:07;4.67;4.67;4.67
78316;PMS7003;67572;50.930;18.276;2023-08-06T00:09:11;6.33;6.33;6.00
78316;PMS7003;67572;50.930;18.276;2023-08-06T00:12:15;7.67;6.00;6.00
78316;PMS7003;67572;50.930;18.276;2023-08-06T00:15:18;6.67;6.67;6.00
78316;PMS7003;67572;50.930;18.276;2023-08-06T00:18:24;5.33;5.33;5.33
78316;PMS7003;67572;50.930;18.276;2023-08-06T00:21:27;7.67;7.67;7.00
78316;PMS7003;67572;50.930;18.276;2023-08-06T00:24:30;4.67;4.67;3.67
78316;PMS7003;67572;50.930;18.276;2023-08-06T00:27:34;6.00;6.00;6.00
78316;PMS7003;67572;50.930;18.276;2023-08-06T00:30:37;7.00;7.00;7.00
78316;PMS7003;67572;50.930;18.276;2023-08-06T00:33:43;7.00;7.00;7.00
78316;PMS7003;67572;50.930;18.276;2023-08-06T00:36:46;6.67;6.67;6.33
78316;PMS7003;67572;50.930;18.276;2023-08-06T00:39:50;4.67;4.67;4.67
78316;PMS7003;67572;50.930;18.276;2023-08-06T00:42:54;9.00;9.00;9.00
78316;PMS7003;67572;50.930;18.276;2023-08-06T00:45:58;7.00;7.00;7.00
78316;PMS7003;67572;50.930;18.276;2023-08-06T00:49:03;9.33;6.33;6.00
78316;PMS7003;67572;50.930;18.276;2023-08-06T00:52:08;7.00;7.00;7.00
78316;PMS7003;67572;50.930;18.276;2023-08-06T00:55:11;9.00;9.00;7.00
78316;PMS7003;67572;50.930;18.276;2023-08-06T00:58:15;6.33;5.33;3.67
78316;PMS7003;67572;50.930;18.276;2023-08-06T01:01:20;9.00;9.00;9.00
78316;PMS7003;67572;50.930;18.276;2023-08-06T01:04:25;6.00;6.00;6.00
78316;PMS7003;67572;50.930;18.276;2023-08-06T01:07:32;4.00;3.00;3.00
78316;PMS7003;67572;50.930;18.276;2023-08-06T01:10:50;7.00;6.33;6.33
78316;PMS7003;67572;50.930;18.276;2023-08-06T01:14:08;9.00;9.00;7.00
78316;PMS7003;67572;50.930;18.276;2023-08-06T01:17:18;9.33;9.33;9.00
78316;PMS7003;67572;50.930;18.276;2023-08-06T01:20:28;8.00;6.00;6.00
78316;PMS7003;67572;50.930;18.276;2023-08-06T01:23:32;12.00;12.00;10.00
78316;PMS7003;67572;50.930;18.276;2023-08-06T01:26:37;6.00;6.00;6.00
78316;PMS7003;67572;50.930;18.276;2023-08-06T01:29:47;7.67;7.67;7.67
78316;PMS7003;67572;50.930;18.276;2023-08-06T01:32:57;9.67;9.67;9.67
78316;PMS7003;67572;50.930;18.276;2023-08-06T01:36:05;6.67;6.67;6.67
78316;PMS7003;67572;50.930;18.276;2023-08-06T01:39:09;9.33;9.33;9.00
78316;PMS7003;67572;50.930;18.276;2023-08-06T01:42:13;13.67;13.67;11.33
78316;PMS7003;67572;50.930;18.276;2023-08-06T01:45:16;10.67;7.00;6.00
78316;PMS7003;67572;50.930;18.276;2023-08-06T01:48:20;6.33;6.33;4.67
78316;PMS7003;67572;50.930;18.276;2023-08-06T01:51:25;10.00;9.00;9.00
78316;PMS7003;67572;50.930;18.276;2023-08-06T01:54:28;13.33;9.00;9.00
78316;PMS7003;67572;50.930;18.276;2023-08-06T01:57:32;10.00;10.00;10.00
78316;PMS7003;67572;50.930;18.276;2023-08-06T02:00:36;15.67;12.00;12.00
78316;PMS7003;67572;50.930;18.276;2023-08-06T02:03:39;12.33;10.67;10.67
78316;PMS7003;67572;50.930;18.276;2023-08-06T02:06:46;12.33;10.00;9.00
78316;PMS7003;67572;50.930;18.276;2023-08-06T02:09:49;13.00;12.33;10.00
78316;PMS7003;67572;50.930;18.276;2023-08-06T02:12:54;16.67;15.33;13.00
78316;PMS7003;67572;50.930;18.276;2023-08-06T02:15:57;14.33;14.33;12.67
78316;PMS7003;67572;50.930;18.276;2023-08-06T02:19:01;13.00;13.00;11.33
78316;PMS7003;67572;50.930;18.276;2023-08-06T02:22:06;19.00;18.00;16.00
78316;PMS7003;67572;50.930;18.276;2023-08-06T02:25:09;13.00;13.00;10.67
78316;PMS7003;67572;50.930;18.276;2023-08-06T02:28:13;23.67;20.67;16.00
78316;PMS7003;67572;50.930;18.276;2023-08-06T02:31:17;18.00;18.00;16.00
78316;PMS7003;67572;50.930;18.276;2023-08-06T02:34:20;31.33;18.67;15.67
78316;PMS7003;67572;50.930;18.276;2023-08-06T02:37:25;30.67;19.33;14.67
78316;PMS7003;67572;50.930;18.276;2023-08-06T02:40:29;25.67;24.00;15.00
78316;PMS7003;67572;50.930;18.276;2023-08-06T02:43:32;22.33;16.67;13.00
78316;PMS7003;67572;50.930;18.276;2023-08-06T02:46:36;15.67;11.67;10.33
78316;PMS7003;67572;50.930;18.276;2023-08-06T02:49:39;10.00;10.00;10.00
78316;PMS7003;67572;50.930;18.276;2023-08-06T02:52:44;21.00;13.00;12.00
78316;PMS7003;67572;50.930;18.276;2023-08-06T02:55:48;12.33;10.67;9.00
78316;PMS7003;67572;50.930;18.276;2023-08-06T02:58:57;15.67;14.33;10.67
78316;PMS7003;67572;50.930;18.276;2023-08-06T03:02:21;27.67;23.00;13.67
78316;PMS7003;67572;50.930;18.276;2023-08-06T03:05:51;27.67;24.00;15.00
78316;PMS7003;67572;50.930;18.276;2023-08-06T03:09:05;20.33;15.33;14.33
78316;PMS7003;67572;50.930;18.276;2023-08-06T03:12:09;15.67;13.67;12.67
78316;PMS7003;67572;50.930;18.276;2023-08-06T03:15:13;21.00;18.00;12.33
78316;PMS7003;67572;50.930;18.276;2023-08-06T03:18:19;14.33;10.67;4.67
78316;PMS7003;67572;50.930;18.276;2023-08-06T03:21:24;11.33;11.33;10.67
78316;PMS7003;67572;50.930;18.276;2023-08-06T03:24:29;10.00;8.00;5.50
78316;PMS7003;67572;50.930;18.276;2023-08-06T03:27:33;16.00;15.00;12.67
78316;PMS7003;67572;50.930;18.276;2023-08-06T03:30:37;14.67;14.67;12.00
78316;PMS7003;67572;50.930;18.276;2023-08-06T03:33:44;14.33;12.67;10.00
78316;PMS7003;67572;50.930;18.276;2023-08-06T03:36:56;13.00;12.00;10.00
78316;PMS7003;67572;50.930;18.276;2023-08-06T03:40:03;21.67;13.00;12.33
78316;PMS7003;67572;50.930;18.276;2023-08-06T03:43:08;11.33;10.00;9.00
78316;PMS7003;67572;50.930;18.276;2023-08-06T03:46:12;12.67;12.67;10.67
78316;PMS7003;67572;50.930;18.276;2023-08-06T03:49:16;6.75;6.75;6.00
78316;PMS7003;67572;50.930;18.276;2023-08-06T03:52:20;9.67;9.67;7.67
78316;PMS7003;67572;50.930;18.276;2023-08-06T03:55:25;14.33;12.67;11.33
78316;PMS7003;67572;50.930;18.276;2023-08-06T03:58:29;13.00;13.00;12.00
78316;PMS7003;67572;50.930;18.276;2023-08-06T04:01:32;7.75;7.75;6.00
78316;PMS7003;67572;50.930;18.276;2023-08-06T04:04:37;12.67;10.00;9.00
78316;PMS7003;67572;50.930;18.276;2023-08-06T04:07:40;9.67;9.00;7.00
78316;PMS7003;67572;50.930;18.276;2023-08-06T04:10:48;6.00;6.00;6.00
78316;PMS7003;67572;50.930;18.276;2023-08-06T04:13:52;10.00;10.00;10.00
78316;PMS7003;67572;50.930;18.276;2023-08-06T04:16:58;9.00;9.00;8.33
78316;PMS7003;67572;50.930;18.276;2023-08-06T04:20:02;6.25;4.50;4.25
78316;PMS7003;67572;50.930;18.276;2023-08-06T04:23:07;6.50;5.75;5.00
78316;PMS7003;67572;50.930;18.276;2023-08-06T04:26:12;9.67;9.67;8.33
78316;PMS7003;67572;50.930;18.276;2023-08-06T04:29:16;7.00;7.00;7.00
78316;PMS7003;67572;50.930;18.276;2023-08-06T04:32:19;7.67;6.67;6.00
78316;PMS7003;67572;50.930;18.276;2023-08-06T04:35:26;1.00;0.00;0.00
78316;PMS7003;67572;50.930;18.276;2023-08-06T04:38:30;5.33;5.33;3.67
78316;PMS7003;67572;50.930;18.276;2023-08-06T04:41:35;10.00;10.00;9.00
78316;PMS7003;67572;50.930;18.276;2023-08-06T04:44:40;7.00;7.00;7.00
78316;PMS7003;67572;50.930;18.276;2023-08-06T04:47:44;5.33;5.33;5.33
78316;PMS7003;67572;50.930;18.276;2023-08-06T04:50:48;9.67;5.33;5.33
78316;PMS7003;67572;50.930;18.276;2023-08-06T04:53:53;1.67;1.67;1.67
78316;PMS7003;67572;50.930;18.276;2023-08-06T04:56:58;6.00;6.00;4.67
78316;PMS7003;67572;50.930;18.276;2023-08-06T05:00:01;2.50;2.50;2.50
78316;PMS7003;67572;50.930;18.276;2023-08-06T05:03:06;7.00;7.00;6.00
78316;PMS7003;67572;50.930;18.276;2023-08-06T05:06:09;4.50;2.00;2.00
78316;PMS7003;67572;50.930;18.276;2023-08-06T05:09:13;5.75;5.75;5.75
78316;PMS7003;67572;50.930;18.276;2023-08-06T05:12:18;5.25;5.25;5.00
78316;PMS7003;67572;50.930;18.276;2023-08-06T05:15:21;1.50;1.50;1.50
78316;PMS7003;67572;50.930;18.276;2023-08-06T05:18:27;3.75;3.75;3.75
78316;PMS7003;67572;50.930;18.276;2023-08-06T05:21:32;6.00;6.00;6.00
78316;PMS7003;67572;50.930;18.276;2023-08-06T05:24:35;5.33;5.33;5.33
78316;PMS7003;67572;50.930;18.276;2023-08-06T05:27:40;6.00;6.00;4.67
78316;PMS7003;67572;50.930;18.276;2023-08-06T05:30:44;4.67;4.67;4.67
78316;PMS7003;67572;50.930;18.276;2023-08-06T05:33:48;5.00;3.25;3.25
78316;PMS7003;67572;50.930;18.276;2023-08-06T05:36:51;6.00;3.33;3.33
78316;PMS7003;67572;50.930;18.276;2023-08-06T05:39:55;4.00;4.00;4.00
78316;PMS7003;67572;50.930;18.276;2023-08-06T05:43:00;5.33;5.33;4.00
78316;PMS7003;67572;50.930;18.276;2023-08-06T05:46:03;3.25;3.25;3.25
78316;PMS7003;67572;50.930;18.276;2023-08-06T05:49:07;4.00;4.00;4.00
78316;PMS7003;67572;50.930;18.276;2023-08-06T05:52:10;4.00;3.00;3.00
78316;PMS7003;67572;50.930;18.276;2023-08-06T05:55:14;4.00;3.00;3.00
78316;PMS7003;67572;50.930;18.276;2023-08-06T05:58:19;2.00;2.00;2.00
78316;PMS7003;67572;50.930;18.276;2023-08-06T06:01:22;7.00;7.00;6.00
78316;PMS7003;67572;50.930;18.276;2023-08-06T06:04:26;4.00;3.00;3.00
78316;PMS7003;67572;50.930;18.276;2023-08-06T06:07:30;3.00;3.00;3.00
78316;PMS7003;67572;50.930;18.276;2023-08-06T06:10:34;3.00;3.00;2.50
78316;PMS7003;67572;50.930;18.276;2023-08-06T06:13:39;4.00;4.00;4.00
78316;PMS7003;67572;50.930;18.276;2023-08-06T06:16:43;3.00;3.00;3.00
78316;PMS7003;67572;50.930;18.276;2023-08-06T06:19:46;2.33;2.33;2.33
78316;PMS7003;67572;50.930;18.276;2023-08-06T06:22:50;0.00;0.00;0.00
78316;PMS7003;67572;50.930;18.276;2023-08-06T06:25:53;3.00;0.00;0.00
78316;PMS7003;67572;50.930;18.276;2023-08-06T06:28:59;0.00;0.00;0.00
78316;PMS7003;67572;50.930;18.276;2023-08-06T06:32:03;0.00;0.00;0.00
78316;PMS7003;67572;50.930;18.276;2023-08-06T06:35:07;0.00;0.00;0.00
78316;PMS7003;67572;50.930;18.276;2023-08-06T06:38:11;0.00;0.00;0.00
78316;PMS7003;67572;50.930;18.276;2023-08-06T06:41:14;1.00;0.00;0.00
78316;PMS7003;67572;50.930;18.276;2023-08-06T06:44:19;0.00;0.00;0.00
78316;PMS7003;67572;50.930;18.276;2023-08-06T06:47:22;0.00;0.00;0.00
78316;PMS7003;67572;50.930;18.276;2023-08-06T06:50:26;0.00;0.00;0.00
78316;PMS7003;67572;50.930;18.276;2023-08-06T06:53:29;0.00;0.00;0.00
78316;PMS7003;67572;50.930;18.276;2023-08-06T06:56:33;0.00;0.00;0.00
78316;PMS7003;67572;50.930;18.276;2023-08-06T06:59:38;0.00;0.00;0.00
78316;PMS7003;67572;50.930;18.276;2023-08-06T07:02:42;0.00;0.00;0.00
78316;PMS7003;67572;50.930;18.276;2023-08-06T07:05:45;0.00;0.00;0.00
78316;PMS7003;67572;50.930;18.276;2023-08-06T07:08:49;0.33;0.00;0.00
78316;PMS7003;67572;50.930;18.276;2023-08-06T07:11:52;1.00;0.00;0.00
78316;PMS7003;67572;50.930;18.276;2023-08-06T07:14:58;0.00;0.00;0.00
78316;PMS7003;67572;50.930;18.276;2023-08-06T07:18:02;0.00;0.00;0.00
78316;PMS7003;67572;50.930;18.276;2023-08-06T07:21:05;0.00;0.00;0.00
78316;PMS7003;67572;50.930;18.276;2023-08-06T07:24:08;0.00;0.00;0.00
78316;PMS7003;67572;50.930;18.276;2023-08-06T07:27:13;0.00;0.00;0.00
78316;PMS7003;67572;50.930;18.276;2023-08-06T07:30:18;0.00;0.00;0.00
78316;PMS7003;67572;50.930;18.276;2023-08-06T07:33:21;0.00;0.00;0.00
78316;PMS7003;67572;50.930;18.276;2023-08-06T07:36:25;0.00;0.00;0.00
78316;PMS7003;67572;50.930;18.276;2023-08-06T07:39:28;0.33;0.00;0.00
78316;PMS7003;67572;50.930;18.276;2023-08-06T07:42:32;0.00;0.00;0.00
78316;PMS7003;67572;50.930;18.276;2023-08-06T07:45:37;0.00;0.00;0.00
78316;PMS7003;67572;50.930;18.276;2023-08-06T07:48:41;0.00;0.00;0.00
78316;PMS7003;67572;50.930;18.276;2023-08-06T07:51:44;0.00;0.00;0.00
78316;PMS7003;67572;50.930;18.276;2023-08-06T07:54:48;0.00;0.00;0.00
78316;PMS7003;67572;50.930;18.276;2023-08-06T07:57:51;0.00;0.00;0.00
78316;PMS7003;67572;50.930;18.276;2023-08-06T08:00:56;0.00;0.00;0.00
78316;PMS7003;67572;50.930;18.276;2023-08-06T08:04:03;0.00;0.00;0.00
78316;PMS7003;67572;50.930;18.276;2023-08-06T08:07:09;0.00;0.00;0.00
78316;PMS7003;67572;50.930;18.276;2023-08-06T08:10:13;0.00;0.00;0.00
78316;PMS7003;67572;50.930;18.276;2023-08-06T08:13:17;0.00;0.00;0.00
78316;PMS7003;67572;50.930;18.276;2023-08-06T08:16:22;0.00;0.00;0.00
78316;PMS7003;67572;50.930;18.276;2023-08-06T08:19:26;0.00;0.00;0.00
78316;PMS7003;67572;50.930;18.276;2023-08-06T08:22:30;0.67;0.67;0.67
78316;PMS7003;67572;50.930;18.276;2023-08-06T08:25:33;0.00;0.00;0.00
78316;PMS7003;67572;50.930;18.276;2023-08-06T08:28:37;0.00;0.00;0.00
78316;PMS7003;67572;50.930;18.276;2023-08-06T08:31:42;0.00;0.00;0.00
78316;PMS7003;67572;50.930;18.276;2023-08-06T08:34:46;0.00;0.00;0.00
78316;PMS7003;67572;50.930;18.276;2023-08-06T08:37:50;0.33;0.00;0.00
78316;PMS7003;67572;50.930;18.276;2023-08-06T08:40:54;0.00;0.00;0.00
78316;PMS7003;67572;50.930;18.276;2023-08-06T08:43:58;0.00;0.00;0.00
78316;PMS7003;67572;50.930;18.276;2023-08-06T08:47:04;0.00;0.00;0.00
78316;PMS7003;67572;50.930;18.276;2023-08-06T08:50:10;0.00;0.00;0.00
78316;PMS7003;67572;50.930;18.276;2023-08-06T08:53:15;0.00;0.00;0.00
78316;PMS7003;67572;50.930;18.276;2023-08-06T08:56:20;0.00;0.00;0.00
78316;PMS7003;67572;50.930;18.276;2023-08-06T08:59:23;0.00;0.00;0.00
78316;PMS7003;67572;50.930;18.276;2023-08-06T09:02:28;0.00;0.00;0.00
78316;PMS7003;67572;50.930;18.276;2023-08-06T09:05:34;0.00;0.00;0.00
78316;PMS7003;67572;50.930;18.276;2023-08-06T09:08:39;0.00;0.00;0.00
78316;PMS7003;67572;50.930;18.276;2023-08-06T09:11:50;0.00;0.00;0.00
78316;PMS7003;67572;50.930;18.276;2023-08-06T09:14:55;0.00;0.00;0.00
78316;PMS7003;67572;50.930;18.276;2023-08-06T09:18:00;0.00;0.00;0.00
78316;PMS7003;67572;50.930;18.276;2023-08-06T09:21:13;0.00;0.00;0.00
78316;PMS7003;67572;50.930;18.276;2023-08-06T09:24:18;0.00;0.00;0.00
78316;PMS7003;67572;50.930;18.276;2023-08-06T09:27:22;0.00;0.00;0.00
78316;PMS7003;67572;50.930;18.276;2023-08-06T09:30:29;0.00;0.00;0.00
78316;PMS7003;67572;50.930;18.276;2023-08-06T09:33:36;0.00;0.00;0.00
78316;PMS7003;67572;50.930;18.276;2023-08-06T09:36:41;0.00;0.00;0.00
78316;PMS7003;67572;50.930;18.276;2023-08-06T09:39:45;0.00;0.00;0.00
78316;PMS7003;67572;50.930;18.276;2023-08-06T09:42:48;0.00;0.00;0.00
78316;PMS7003;67572;50.930;18.276;2023-08-06T09:45:52;0.00;0.00;0.00
78316;PMS7003;67572;50.930;18.276;2023-08-06T09:48:59;1.00;0.00;0.00
78316;PMS7003;67572;50.930;18.276;2023-08-06T09:52:03;0.00;0.00;0.00
78316;PMS7003;67572;50.930;18.276;2023-08-06T09:55:08;0.00;0.00;0.00
78316;PMS7003;67572;50.930;18.276;2023-08-06T09:58:15;0.00;0.00;0.00
78316;PMS7003;67572;50.930;18.276;2023-08-06T10:01:19;0.00;0.00;0.00
78316;PMS7003;67572;50.930;18.276;2023-08-06T10:04:25;0.00;0.00;0.00
78316;PMS7003;67572;50.930;18.276;2023-08-06T10:07:42;0.00;0.00;0.00
78316;PMS7003;67572;50.930;18.276;2023-08-06T10:10:46;0.00;0.00;0.00
78316;PMS7003;67572;50.930;18.276;2023-08-06T10:13:50;0.00;0.00;0.00
78316;PMS7003;67572;50.930;18.276;2023-08-06T10:17:00;0.00;0.00;0.00
78316;PMS7003;67572;50.930;18.276;2023-08-06T10:20:07;0.00;0.00;0.00
78316;PMS7003;67572;50.930;18.276;2023-08-06T10:23:11;0.00;0.00;0.00
78316;PMS7003;67572;50.930;18.276;2023-08-06T10:26:16;0.00;0.00;0.00
78316;PMS7003;67572;50.930;18.276;2023-08-06T10:29:35;0.00;0.00;0.00
78316;PMS7003;67572;50.930;18.276;2023-08-06T10:32:46;0.00;0.00;0.00
78316;PMS7003;67572;50.930;18.276;2023-08-06T10:35:56;0.00;0.00;0.00
78316;PMS7003;67572;50.930;18.276;2023-08-06T10:39:09;0.00;0.00;0.00
78316;PMS7003;67572;50.930;18.276;2023-08-06T10:42:32;0.00;0.00;0.00
78316;PMS7003;67572;50.930;18.276;2023-08-06T10:45:35;0.00;0.00;0.00
78316;PMS7003;67572;50.930;18.276;2023-08-06T10:48:45;0.00;0.00;0.00
78316;PMS7003;67572;50.930;18.276;2023-08-06T10:51:50;0.00;0.00;0.00
78316;PMS7003;67572;50.930;18.276;2023-08-06T10:54:54;0.00;0.00;0.00
78316;PMS7003;67572;50.930;18.276;2023-08-06T10:57:58;0.00;0.00;0.00
78316;PMS7003;67572;50.930;18.276;2023-08-06T11:01:02;0.00;0.00;0.00
78316;PMS7003;67572;50.930;18.276;2023-08-06T11:04:05;0.00;0.00;0.00
78316;PMS7003;67572;50.930;18.276;2023-08-06T11:07:10;0.00;0.00;0.00
78316;PMS7003;67572;50.930;18.276;2023-08-06T11:10:15;0.00;0.00;0.00
78316;PMS7003;67572;50.930;18.276;2023-08-06T11:13:19;0.00;0.00;0.00
78316;PMS7003;67572;50.930;18.276;2023-08-06T11:16:23;0.00;0.00;0.00
78316;PMS7003;67572;50.930;18.276;2023-08-06T11:19:27;0.00;0.00;0.00
78316;PMS7003;67572;50.930;18.276;2023-08-06T11:22:33;0.00;0.00;0.00
78316;PMS7003;67572;50.930;18.276;2023-08-06T11:25:43;0.00;0.00;0.00
78316;PMS7003;67572;50.930;18.276;2023-08-06T11:28:48;0.00;0.00;0.00
78316;PMS7003;67572;50.930;18.276;2023-08-06T11:31:52;0.00;0.00;0.00
78316;PMS7003;67572;50.930;18.276;2023-08-06T11:34:56;0.00;0.00;0.00
78316;PMS7003;67572;50.930;18.276;2023-08-06T11:38:01;0.00;0.00;0.00
78316;PMS7003;67572;50.930;18.276;2023-08-06T11:41:06;0.00;0.00;0.00
78316;PMS7003;67572;50.930;18.276;2023-08-06T11:44:10;1.00;1.00;1.00
78316;PMS7003;67572;50.930;18.276;2023-08-06T11:47:18;9.67;9.67;8.67
78316;PMS7003;67572;50.930;18.276;2023-08-06T11:50:22;0.00;0.00;0.00
78316;PMS7003;67572;50.930;18.276;2023-08-06T11:53:28;0.00;0.00;0.00
78316;PMS7003;67572;50.930;18.276;2023-08-06T11:56:32;0.00;0.00;0.00
78316;PMS7003;67572;50.930;18.276;2023-08-06T11:59:37;0.00;0.00;0.00
78316;PMS7003;67572;50.930;18.276;2023-08-06T12:02:42;0.00;0.00;0.00
78316;PMS7003;67572;50.930;18.276;2023-08-06T12:05:46;0.00;0.00;0.00
78316;PMS7003;67572;50.930;18.276;2023-08-06T12:08:51;0.00;0.00;0.00
78316;PMS7003;67572;50.930;18.276;2023-08-06T12:11:55;0.00;0.00;0.00
78316;PMS7003;67572;50.930;18.276;2023-08-06T12:14:58;0.00;0.00;0.00
78316;PMS7003;67572;50.930;18.276;2023-08-06T12:18:02;0.00;0.00;0.00
78316;PMS7003;67572;50.930;18.276;2023-08-06T12:21:06;0.00;0.00;0.00
78316;PMS7003;67572;50.930;18.276;2023-08-06T12:24:11;0.00;0.00;0.00
78316;PMS7003;67572;50.930;18.276;2023-08-06T12:27:14;0.00;0.00;0.00
78316;PMS7003;67572;50.930;18.276;2023-08-06T12:30:18;0.00;0.00;0.00
78316;PMS7003;67572;50.930;18.276;2023-08-06T12:33:21;0.00;0.00;0.00
78316;PMS7003;67572;50.930;18.276;2023-08-06T12:36:25;0.00;0.00;0.00
78316;PMS7003;67572;50.930;18.276;2023-08-06T12:39:30;3.00;3.00;3.00
78316;PMS7003;67572;50.930;18.276;2023-08-06T12:42:34;1.00;1.00;1.00
78316;PMS7003;67572;50.930;18.276;2023-08-06T12:45:37;1.67;1.67;1.67
78316;PMS7003;67572;50.930;18.276;2023-08-06T12:48:41;0.00;0.00;0.00
78316;PMS7003;67572;50.930;18.276;2023-08-06T12:51:44;1.00;1.00;1.00
78316;PMS7003;67572;50.930;18.276;2023-08-06T12:54:49;0.00;0.00;0.00
78316;PMS7003;67572;50.930;18.276;2023-08-06T12:57:53;0.00;0.00;0.00
78316;PMS7003;67572;50.930;18.276;2023-08-06T13:00:59;0.00;0.00;0.00
78316;PMS7003;67572;50.930;18.276;2023-08-06T13:04:03;0.00;0.00;0.00
78316;PMS7003;67572;50.930;18.276;2023-08-06T13:07:22;0.00;0.00;0.00
78316;PMS7003;67572;50.930;18.276;2023-08-06T13:10:27;0.00;0.00;0.00
78316;PMS7003;67572;50.930;18.276;2023-08-06T13:13:31;0.00;0.00;0.00
78316;PMS7003;67572;50.930;18.276;2023-08-06T13:16:34;0.00;0.00;0.00
78316;PMS7003;67572;50.930;18.276;2023-08-06T13:19:38;0.00;0.00;0.00
78316;PMS7003;67572;50.930;18.276;2023-08-06T13:22:42;0.00;0.00;0.00
78316;PMS7003;67572;50.930;18.276;2023-08-06T13:25:49;0.00;0.00;0.00
78316;PMS7003;67572;50.930;18.276;2023-08-06T13:28:53;0.00;0.00;0.00
78316;PMS7003;67572;50.930;18.276;2023-08-06T13:31:56;0.00;0.00;0.00
78316;PMS7003;67572;50.930;18.276;2023-08-06T13:35:00;0.00;0.00;0.00
78316;PMS7003;67572;50.930;18.276;2023-08-06T13:38:03;0.00;0.00;0.00
78316;PMS7003;67572;50.930;18.276;2023-08-06T13:41:09;0.00;0.00;0.00
78316;PMS7003;67572;50.930;18.276;2023-08-06T13:44:12;0.00;0.00;0.00
78316;PMS7003;67572;50.930;18.276;2023-08-06T13:47:16;0.00;0.00;0.00
78316;PMS7003;67572;50.930;18.276;2023-08-06T13:50:20;0.00;0.00;0.00
78316;PMS7003;67572;50.930;18.276;2023-08-06T13:53:23;0.00;0.00;0.00
78316;PMS7003;67572;50.930;18.276;2023-08-06T13:56:34;0.00;0.00;0.00
78316;PMS7003;67572;50.930;18.276;2023-08-06T13:59:39;0.00;0.00;0.00
78316;PMS7003;67572;50.930;18.276;2023-08-06T14:02:45;0.00;0.00;0.00
78316;PMS7003;67572;50.930;18.276;2023-08-06T14:05:49;0.00;0.00;0.00
78316;PMS7003;67572;50.930;18.276;2023-08-06T14:08:53;0.00;0.00;0.00
78316;PMS7003;67572;50.930;18.276;2023-08-06T14:11:58;0.00;0.00;0.00
78316;PMS7003;67572;50.930;18.276;2023-08-06T14:15:02;0.00;0.00;0.00
78316;PMS7003;67572;50.930;18.276;2023-08-06T14:18:06;0.00;0.00;0.00
78316;PMS7003;67572;50.930;18.276;2023-08-06T14:21:11;0.00;0.00;0.00
78316;PMS7003;67572;50.930;18.276;2023-08-06T14:24:14;0.00;0.00;0.00
78316;PMS7003;67572;50.930;18.276;2023-08-06T14:27:19;0.00;0.00;0.00
78316;PMS7003;67572;50.930;18.276;2023-08-06T14:30:23;0.00;0.00;0.00
78316;PMS7003;67572;50.930;18.276;2023-08-06T14:33:26;0.00;0.00;0.00
78316;PMS7003;67572;50.930;18.276;2023-08-06T14:36:30;0.00;0.00;0.00
78316;PMS7003;67572;50.930;18.276;2023-08-06T14:39:33;0.00;0.00;0.00
78316;PMS7003;67572;50.930;18.276;2023-08-06T14:42:38;0.67;0.00;0.00
78316;PMS7003;67572;50.930;18.276;2023-08-06T14:45:42;0.00;0.00;0.00
78316;PMS7003;67572;50.930;18.276;2023-08-06T14:48:45;0.00;0.00;0.00
78316;PMS7003;67572;50.930;18.276;2023-08-06T14:51:49;0.00;0.00;0.00
78316;PMS7003;67572;50.930;18.276;2023-08-06T14:54:53;0.00;0.00;0.00
78316;PMS7003;67572;50.930;18.276;2023-08-06T14:58:00;1.00;0.00;0.00
78316;PMS7003;67572;50.930;18.276;2023-08-06T15:01:04;0.00;0.00;0.00
78316;PMS7003;67572;50.930;18.276;2023-08-06T15:04:07;0.00;0.00;0.00
78316;PMS7003;67572;50.930;18.276;2023-08-06T15:07:11;0.33;0.33;0.33
78316;PMS7003;67572;50.930;18.276;2023-08-06T15:10:14;1.00;1.00;1.00
78316;PMS7003;67572;50.930;18.276;2023-08-06T15:13:22;0.00;0.00;0.00
78316;PMS7003;67572;50.930;18.276;2023-08-06T15:16:26;0.00;0.00;0.00
78316;PMS7003;67572;50.930;18.276;2023-08-06T15:19:29;0.00;0.00;0.00
78316;PMS7003;67572;50.930;18.276;2023-08-06T15:26:25;0.00;0.00;0.00
78316;PMS7003;67572;50.930;18.276;2023-08-06T15:29:28;0.00;0.00;0.00
78316;PMS7003;67572;50.930;18.276;2023-08-06T15:32:32;0.00;0.00;0.00
78316;PMS7003;67572;50.930;18.276;2023-08-06T15:35:35;0.00;0.00;0.00
78316;PMS7003;67572;50.930;18.276;2023-08-06T15:38:39;0.00;0.00;0.00
78316;PMS7003;67572;50.930;18.276;2023-08-06T15:41:44;0.00;0.00;0.00
78316;PMS7003;67572;50.930;18.276;2023-08-06T15:48:20;0.00;0.00;0.00
78316;PMS7003;67572;50.930;18.276;2023-08-06T15:51:23;0.00;0.00;0.00
78316;PMS7003;67572;50.930;18.276;2023-08-06T15:54:27;0.00;0.00;0.00
78316;PMS7003;67572;50.930;18.276;2023-08-06T15:57:31;0.00;0.00;0.00
78316;PMS7003;67572;50.930;18.276;2023-08-06T16:00:34;0.00;0.00;0.00
78316;PMS7003;67572;50.930;18.276;2023-08-06T16:04:54;0.00;0.00;0.00
78316;PMS7003;67572;50.930;18.276;2023-08-06T16:07:58;0.00;0.00;0.00
78316;PMS7003;67572;50.930;18.276;2023-08-06T16:11:02;0.00;0.00;0.00
78316;PMS7003;67572;50.930;18.276;2023-08-06T16:14:06;0.67;0.67;0.67
78316;PMS7003;67572;50.930;18.276;2023-08-06T16:17:09;0.00;0.00;0.00
78316;PMS7003;67572;50.930;18.276;2023-08-06T16:20:14;0.00;0.00;0.00
78316;PMS7003;67572;50.930;18.276;2023-08-06T16:23:18;0.00;0.00;0.00
78316;PMS7003;67572;50.930;18.276;2023-08-06T16:26:21;0.00;0.00;0.00
78316;PMS7003;67572;50.930;18.276;2023-08-06T16:29:25;0.00;0.00;0.00
78316;PMS7003;67572;50.930;18.276;2023-08-06T16:32:28;0.00;0.00;0.00
78316;PMS7003;67572;50.930;18.276;2023-08-06T16:38:26;0.00;0.00;0.00
78316;PMS7003;67572;50.930;18.276;2023-08-06T16:41:30;0.00;0.00;0.00
78316;PMS7003;67572;50.930;18.276;2023-08-06T16:44:34;0.00;0.00;0.00
78316;PMS7003;67572;50.930;18.276;2023-08-06T16:47:37;0.00;0.00;0.00
78316;PMS7003;67572;50.930;18.276;2023-08-06T16:50:41;0.00;0.00;0.00
78316;PMS7003;67572;50.930;18.276;2023-08-06T16:53:47;0.00;0.00;0.00
78316;PMS7003;67572;50.930;18.276;2023-08-06T16:56:50;0.00;0.00;0.00
78316;PMS7003;67572;50.930;18.276;2023-08-06T16:59:54;0.00;0.00;0.00
78316;PMS7003;67572;50.930;18.276;2023-08-06T17:02:58;0.00;0.00;0.00
78316;PMS7003;67572;50.930;18.276;2023-08-06T17:06:02;0.00;0.00;0.00
78316;PMS7003;67572;50.930;18.276;2023-08-06T17:12:22;1.00;0.00;0.00
78316;PMS7003;67572;50.930;18.276;2023-08-06T17:16:18;0.00;0.00;0.00
78316;PMS7003;67572;50.930;18.276;2023-08-06T17:19:21;0.00;0.00;0.00
78316;PMS7003;67572;50.930;18.276;2023-08-06T17:22:25;0.00;0.00;0.00
78316;PMS7003;67572;50.930;18.276;2023-08-06T17:25:28;0.00;0.00;0.00
78316;PMS7003;67572;50.930;18.276;2023-08-06T17:28:33;0.00;0.00;0.00
78316;PMS7003;67572;50.930;18.276;2023-08-06T17:31:38;0.00;0.00;0.00
78316;PMS7003;67572;50.930;18.276;2023-08-06T17:34:42;0.00;0.00;0.00
78316;PMS7003;67572;50.930;18.276;2023-08-06T17:37:45;0.00;0.00;0.00
78316;PMS7003;67572;50.930;18.276;2023-08-06T17:40:52;0.00;0.00;0.00
78316;PMS7003;67572;50.930;18.276;2023-08-06T17:43:57;0.00;0.00;0.00
78316;PMS7003;67572;50.930;18.276;2023-08-06T17:47:02;0.00;0.00;0.00
78316;PMS7003;67572;50.930;18.276;2023-08-06T17:50:06;0.00;0.00;0.00
78316;PMS7003;67572;50.930;18.276;2023-08-06T17:53:10;0.00;0.00;0.00
78316;PMS7003;67572;50.930;18.276;2023-08-06T17:56:13;0.00;0.00;0.00
78316;PMS7003;67572;50.930;18.276;2023-08-06T17:59:17;0.00;0.00;0.00